sensor_id;sensor_type;location;lat;lon;timestamp;pressure;altitude;pressure_sealevel;temperature;humidity
6218;BME280;3142;48.206;11.550;2023-09-19T00:00:05;95426.03;;;18.84;69.95
6218;BME280;3142;48.206;11.550;2023-09-19T00:02:31;95428.16;;;18.87;69.76
6218;BME280;3142;48.206;11.550;2023-09-19T00:05:00;95421.56;;;18.95;68.57
6218;BME280;3142;48.206;11.550;2023-09-19T00:07:29;95421.84;;;18.99;68.86
6218;BME280;3142;48.206;11.550;2023-09-19T00:09:56;95416.56;;;19.04;68.30
6218;BME280;3142;48.206;11.550;2023-09-19T00:12:22;95415.25;;;19.06;68.15
6218;BME280;3142;48.206;11.550;2023-09-19T00:14:49;95422.44;;;19.11;67.58
6218;BME280;3142;48.206;11.550;2023-09-19T00:17:16;95428.25;;;19.13;67.27
6218;BME280;3142;48.206;11.550;2023-09-19T00:19:42;95412.34;;;19.13;67.29
6218;BME280;3142;48.206;11.550;2023-09-19T00:22:10;95420.31;;;19.18;67.75
6218;BME280;3142;48.206;11.550;2023-09-19T00:24:38;95420.88;;;19.20;67.22
6218;BME280;3142;48.206;11.550;2023-09-19T00:27:05;95419.81;;;19.21;67.42
6218;BME280;3142;48.206;11.550;2023-09-19T00:29:33;95410.81;;;19.22;67.11
6218;BME280;3142;48.206;11.550;2023-09-19T00:31:59;95420.09;;;19.19;67.18
6218;BME280;3142;48.206;11.550;2023-09-19T00:34:28;95434.13;;;19.20;67.14
6218;BME280;3142;48.206;11.550;2023-09-19T00:36:55;95434.38;;;19.18;66.87
6218;BME280;3142;48.206;11.550;2023-09-19T00:39:22;95434.91;;;19.15;66.80
6218;BME280;3142;48.206;11.550;2023-09-19T00:41:50;95424.03;;;19.17;66.98
6218;BME280;3142;48.206;11.550;2023-09-19T00:44:17;95433.56;;;19.18;66.83
6218;BME280;3142;48.206;11.550;2023-09-19T00:46:45;95433.56;;;19.18;67.07
6218;BME280;3142;48.206;11.550;2023-09-19T00:49:14;95433.84;;;19.16;66.98
6218;BME280;3142;48.206;11.550;2023-09-19T00:51:41;95443.38;;;19.17;67.09
6218;BME280;3142;48.206;11.550;2023-09-19T00:54:11;95449.78;;;19.21;67.52
6218;BME280;3142;48.206;11.550;2023-09-19T00:56:39;95454.84;;;19.23;67.19
6218;BME280;3142;48.206;11.550;2023-09-19T00:59:07;95451.66;;;19.21;67.19
6218;BME280;3142;48.206;11.550;2023-09-19T01:01:34;95450.06;;;19.20;67.52
6218;BME280;3142;48.206;11.550;2023-09-19T01:04:01;95445.53;;;19.20;67.79
6218;BME280;3142;48.206;11.550;2023-09-19T01:06:30;95446.03;;;19.17;68.00
6218;BME280;3142;48.206;11.550;2023-09-19T01:08:56;95456.91;;;19.16;67.52
6218;BME280;3142;48.206;11.550;2023-09-19T01:11:30;95456.38;;;19.14;68.08
6218;BME280;3142;48.206;11.550;2023-09-19T01:14:10;95460.88;;;19.13;67.82
6218;BME280;3142;48.206;11.550;2023-09-19T01:16:47;95464.88;;;19.11;68.30
6218;BME280;3142;48.206;11.550;2023-09-19T01:22:18;95472.03;;;19.10;68.50
6218;BME280;3142;48.206;11.550;2023-09-19T01:25:00;95472.81;;;19.11;68.12
6218;BME280;3142;48.206;11.550;2023-09-19T01:27:53;95481.31;;;19.13;68.45
6218;BME280;3142;48.206;11.550;2023-09-19T01:30:32;95479.19;;;19.10;68.31
6218;BME280;3142;48.206;11.550;2023-09-19T01:33:03;95485.81;;;19.12;68.29
6218;BME280;3142;48.206;11.550;2023-09-19T01:35:31;95486.09;;;19.11;68.60
6218;BME280;3142;48.206;11.550;2023-09-19T01:37:58;95486.34;;;19.09;68.69
6218;BME280;3142;48.206;11.550;2023-09-19T01:40:24;95485.53;;;19.09;69.03
6218;BME280;3142;48.206;11.550;2023-09-19T01:42:55;95486.34;;;19.09;69.21
6218;BME280;3142;48.206;11.550;2023-09-19T01:45:31;95485.03;;;19.12;68.81
6218;BME280;3142;48.206;11.550;2023-09-19T01:48:09;95496.69;;;19.11;68.69
6218;BME280;3142;48.206;11.550;2023-09-19T01:50:44;95490.84;;;19.09;68.81
6218;BME280;3142;48.206;11.550;2023-09-19T01:53:21;95492.72;;;19.08;68.67
6218;BME280;3142;48.206;11.550;2023-09-19T01:55:50;95495.34;;;19.08;69.31
6218;BME280;3142;48.206;11.550;2023-09-19T01:58:21;95494.56;;;19.08;69.17
6218;BME280;3142;48.206;11.550;2023-09-19T02:00:55;95494.56;;;19.08;68.84
6218;BME280;3142;48.206;11.550;2023-09-19T02:03:24;95492.66;;;19.03;68.80
6218;BME280;3142;48.206;11.550;2023-09-19T02:05:54;95488.16;;;19.04;68.89
6218;BME280;3142;48.206;11.550;2023-09-19T02:08:22;95493.47;;;19.04;69.41
6218;BME280;3142;48.206;11.550;2023-09-19T02:10:49;95489.22;;;19.03;69.23
6218;BME280;3142;48.206;11.550;2023-09-19T02:13:17;95492.16;;;19.06;68.99
6218;BME280;3142;48.206;11.550;2023-09-19T02:15:44;95498.28;;;19.07;68.65
6218;BME280;3142;48.206;11.550;2023-09-19T02:18:12;95498.53;;;19.05;69.37
6218;BME280;3142;48.206;11.550;2023-09-19T02:20:39;95494.03;;;19.06;69.05
6218;BME280;3142;48.206;11.550;2023-09-19T02:23:06;95491.59;;;18.99;68.93
6218;BME280;3142;48.206;11.550;2023-09-19T02:25:33;95497.69;;;19.00;68.88
6218;BME280;3142;48.206;11.550;2023-09-19T02:28:00;95488.69;;;19.01;69.04
6218;BME280;3142;48.206;11.550;2023-09-19T02:30:28;95492.66;;;18.98;68.70
6218;BME280;3142;48.206;11.550;2023-09-19T02:32:54;95493.97;;;18.96;69.22
6218;BME280;3142;48.206;11.550;2023-09-19T02:35:22;95495.03;;;18.94;68.88
6218;BME280;3142;48.206;11.550;2023-09-19T02:37:51;95487.59;;;18.91;69.62
6218;BME280;3142;48.206;11.550;2023-09-19T02:40:17;95504.28;;;18.92;69.32
6218;BME280;3142;48.206;11.550;2023-09-19T02:42:48;95495.78;;;18.90;69.28
6218;BME280;3142;48.206;11.550;2023-09-19T02:45:15;95510.34;;;18.87;69.43
6218;BME280;3142;48.206;11.550;2023-09-19T02:47:43;95503.44;;;18.86;69.73
6218;BME280;3142;48.206;11.550;2023-09-19T02:50:10;95507.69;;;18.87;69.60
6218;BME280;3142;48.206;11.550;2023-09-19T02:52:41;95495.50;;;18.86;69.26
6218;BME280;3142;48.206;11.550;2023-09-19T02:55:09;95506.63;;;18.83;69.00
6218;BME280;3142;48.206;11.550;2023-09-19T02:57:35;95508.19;;;18.79;68.86
6218;BME280;3142;48.206;11.550;2023-09-19T03:00:06;95510.31;;;18.82;68.93
6218;BME280;3142;48.206;11.550;2023-09-19T03:02:35;95506.63;;;18.83;69.01
6218;BME280;3142;48.206;11.550;2023-09-19T03:05:03;95503.97;;;18.83;68.84
6218;BME280;3142;48.206;11.550;2023-09-19T03:07:30;95510.06;;;18.84;68.84
6218;BME280;3142;48.206;11.550;2023-09-19T03:09:58;95503.69;;;18.80;68.95
6218;BME280;3142;48.206;11.550;2023-09-19T03:12:25;95508.19;;;18.79;68.63
6218;BME280;3142;48.206;11.550;2023-09-19T03:14:51;95502.88;;;18.79;68.58
6218;BME280;3142;48.206;11.550;2023-09-19T03:17:18;95511.66;;;18.80;69.13
6218;BME280;3142;48.206;11.550;2023-09-19T03:19:45;95505.03;;;18.82;68.81
6218;BME280;3142;48.206;11.550;2023-09-19T03:22:12;95512.19;;;18.82;68.84
6218;BME280;3142;48.206;11.550;2023-09-19T03:24:38;95509.00;;;18.80;68.74
6218;BME280;3142;48.206;11.550;2023-09-19T03:27:08;95511.91;;;18.78;69.22
6218;BME280;3142;48.206;11.550;2023-09-19T03:29:35;95510.25;;;18.72;69.25
6218;BME280;3142;48.206;11.550;2023-09-19T03:32:02;95511.81;;;18.68;69.29
6218;BME280;3142;48.206;11.550;2023-09-19T03:34:29;95515.78;;;18.66;68.87
6218;BME280;3142;48.206;11.550;2023-09-19T03:36:56;95520.03;;;18.67;68.99
6218;BME280;3142;48.206;11.550;2023-09-19T03:39:22;95511.53;;;18.64;69.23
6218;BME280;3142;48.206;11.550;2023-09-19T03:41:49;95524.19;;;18.62;69.66
6218;BME280;3142;48.206;11.550;2023-09-19T03:44:17;95524.81;;;18.64;69.35
6218;BME280;3142;48.206;11.550;2023-09-19T03:46:43;95519.69;;;18.63;69.13
6218;BME280;3142;48.206;11.550;2023-09-19T03:49:09;95527.44;;;18.64;69.35
6218;BME280;3142;48.206;11.550;2023-09-19T03:51:36;95530.38;;;18.68;69.42
6218;BME280;3142;48.206;11.550;2023-09-19T03:54:03;95525.34;;;18.67;69.40
6218;BME280;3142;48.206;11.550;2023-09-19T03:56:30;95531.44;;;18.67;69.22
6218;BME280;3142;48.206;11.550;2023-09-19T03:58:56;95532.78;;;18.70;69.22
6218;BME280;3142;48.206;11.550;2023-09-19T04:01:24;95530.91;;;18.70;69.36
6218;BME280;3142;48.206;11.550;2023-09-19T04:03:53;95529.06;;;18.71;69.78
6218;BME280;3142;48.206;11.550;2023-09-19T04:06:19;95535.44;;;18.75;68.82
6218;BME280;3142;48.206;11.550;2023-09-19T04:08:45;95533.31;;;18.72;69.83
6218;BME280;3142;48.206;11.550;2023-09-19T04:11:12;95522.72;;;18.72;69.45
6218;BME280;3142;48.206;11.550;2023-09-19T04:13:39;95530.91;;;18.70;69.10
6218;BME280;3142;48.206;11.550;2023-09-19T04:16:05;95536.22;;;18.70;69.23
6218;BME280;3142;48.206;11.550;2023-09-19T04:18:33;95539.66;;;18.66;69.44
6218;BME280;3142;48.206;11.550;2023-09-19T04:21:03;95543.00;;;18.61;69.84
6218;BME280;3142;48.206;11.550;2023-09-19T04:23:30;95537.97;;;18.59;69.73
6218;BME280;3142;48.206;11.550;2023-09-19T04:25:57;95546.44;;;18.56;69.34
6218;BME280;3142;48.206;11.550;2023-09-19T04:28:24;95549.06;;;18.56;70.32
6218;BME280;3142;48.206;11.550;2023-09-19T04:30:50;95555.47;;;18.60;69.90
6218;BME280;3142;48.206;11.550;2023-09-19T04:33:16;95560.72;;;18.55;70.27
6218;BME280;3142;48.206;11.550;2023-09-19T04:35:45;95559.69;;;18.56;69.69
6218;BME280;3142;48.206;11.550;2023-09-19T04:38:11;95563.91;;;18.57;69.73
6218;BME280;3142;48.206;11.550;2023-09-19T04:40:39;95561.28;;;18.57;70.13
6218;BME280;3142;48.206;11.550;2023-09-19T04:43:05;95560.22;;;18.58;70.22
6218;BME280;3142;48.206;11.550;2023-09-19T04:45:33;95564.19;;;18.56;70.15
6218;BME280;3142;48.206;11.550;2023-09-19T04:47:59;95568.94;;;18.54;70.37
6218;BME280;3142;48.206;11.550;2023-09-19T04:50:26;95574.50;;;18.52;69.75
6218;BME280;3142;48.206;11.550;2023-09-19T04:52:54;95581.38;;;18.53;70.27
6218;BME280;3142;48.206;11.550;2023-09-19T04:55:20;95581.66;;;18.52;70.01
6218;BME280;3142;48.206;11.550;2023-09-19T04:57:48;95581.38;;;18.53;70.34
6218;BME280;3142;48.206;11.550;2023-09-19T05:00:16;95584.59;;;18.55;69.91
6218;BME280;3142;48.206;11.550;2023-09-19T05:02:45;95594.13;;;18.56;69.83
6218;BME280;3142;48.206;11.550;2023-09-19T05:05:11;95593.34;;;18.56;69.97
6218;BME280;3142;48.206;11.550;2023-09-19T05:07:44;95599.16;;;18.58;69.88
6218;BME280;3142;48.206;11.550;2023-09-19T05:10:12;95604.22;;;18.59;70.28
6218;BME280;3142;48.206;11.550;2023-09-19T05:12:39;95600.25;;;18.62;70.04
6218;BME280;3142;48.206;11.550;2023-09-19T05:15:06;95607.97;;;18.63;69.46
6218;BME280;3142;48.206;11.550;2023-09-19T05:17:33;95613.28;;;18.63;70.20
6218;BME280;3142;48.206;11.550;2023-09-19T05:20:00;95620.91;;;18.60;69.77
6218;BME280;3142;48.206;11.550;2023-09-19T05:22:40;95618.81;;;18.62;70.23
6218;BME280;3142;48.206;11.550;2023-09-19T05:25:08;95624.38;;;18.60;70.18
6218;BME280;3142;48.206;11.550;2023-09-19T05:27:36;95624.09;;;18.62;70.43
6218;BME280;3142;48.206;11.550;2023-09-19T05:30:03;95627.56;;;18.62;69.75
6218;BME280;3142;48.206;11.550;2023-09-19T05:32:30;95627.09;;;18.66;69.63
6218;BME280;3142;48.206;11.550;2023-09-19T05:34:56;95629.50;;;18.67;69.97
6218;BME280;3142;48.206;11.550;2023-09-19T05:37:22;95625.81;;;18.68;69.60
6218;BME280;3142;48.206;11.550;2023-09-19T05:39:51;95629.00;;;18.70;70.13
6218;BME280;3142;48.206;11.550;2023-09-19T05:42:18;95641.19;;;18.71;69.53
6218;BME280;3142;48.206;11.550;2023-09-19T05:44:46;95642.50;;;18.69;69.43
6218;BME280;3142;48.206;11.550;2023-09-19T05:47:12;95632.16;;;18.67;69.61
6218;BME280;3142;48.206;11.550;2023-09-19T05:49:38;95637.97;;;18.64;70.17
6218;BME280;3142;48.206;11.550;2023-09-19T05:52:06;95637.34;;;18.62;70.17
6218;BME280;3142;48.206;11.550;2023-09-19T05:54:32;95640.91;;;18.68;69.87
6218;BME280;3142;48.206;11.550;2023-09-19T05:56:59;95644.34;;;18.68;69.74
6218;BME280;3142;48.206;11.550;2023-09-19T05:59:26;95645.97;;;18.74;69.27
6218;BME280;3142;48.206;11.550;2023-09-19T06:01:54;95650.75;;;18.72;69.11
6218;BME280;3142;48.206;11.550;2023-09-19T06:04:21;95644.13;;;18.75;69.77
6218;BME280;3142;48.206;11.550;2023-09-19T06:06:48;95652.16;;;18.80;69.29
6218;BME280;3142;48.206;11.550;2023-09-19T06:09:14;95653.50;;;18.82;69.06
6218;BME280;3142;48.206;11.550;2023-09-19T06:11:41;95653.53;;;18.87;68.91
6218;BME280;3142;48.206;11.550;2023-09-19T06:14:08;95654.06;;;18.89;68.71
6218;BME280;3142;48.206;11.550;2023-09-19T06:16:35;95661.22;;;18.89;68.46
6218;BME280;3142;48.206;11.550;2023-09-19T06:19:04;95656.97;;;18.88;68.44
6218;BME280;3142;48.206;11.550;2023-09-19T06:21:31;95653.31;;;18.94;68.86
6218;BME280;3142;48.206;11.550;2023-09-19T06:23:59;95656.50;;;18.96;68.92
6218;BME280;3142;48.206;11.550;2023-09-19T06:26:25;95660.31;;;19.05;68.45
6218;BME280;3142;48.206;11.550;2023-09-19T06:28:52;95652.63;;;19.09;67.78
6218;BME280;3142;48.206;11.550;2023-09-19T06:31:19;95657.16;;;19.13;68.17
6218;BME280;3142;48.206;11.550;2023-09-19T06:33:48;95656.66;;;19.16;67.58
6218;BME280;3142;48.206;11.550;2023-09-19T06:36:16;95658.84;;;19.24;67.75
6218;BME280;3142;48.206;11.550;2023-09-19T06:38:42;95661.75;;;19.23;67.12
6218;BME280;3142;48.206;11.550;2023-09-19T06:41:09;95663.56;;;19.55;66.83
6218;BME280;3142;48.206;11.550;2023-09-19T06:43:35;95670.25;;;20.20;64.50
6218;BME280;3142;48.206;11.550;2023-09-19T06:46:02;95671.47;;;20.85;62.91
6218;BME280;3142;48.206;11.550;2023-09-19T06:48:29;95660.56;;;21.42;60.84
6218;BME280;3142;48.206;11.550;2023-09-19T06:50:56;95672.44;;;21.85;58.93
6218;BME280;3142;48.206;11.550;2023-09-19T06:53:25;95672.59;;;22.25;57.29
6218;BME280;3142;48.206;11.550;2023-09-19T06:55:51;95673.16;;;22.66;56.54
6218;BME280;3142;48.206;11.550;2023-09-19T06:58:18;95668.59;;;22.27;57.25
6218;BME280;3142;48.206;11.550;2023-09-19T07:00:45;95682.91;;;21.56;58.97
6218;BME280;3142;48.206;11.550;2023-09-19T07:03:13;95686.38;;;21.06;60.33
6218;BME280;3142;48.206;11.550;2023-09-19T07:05:41;95690.59;;;20.77;61.33
6218;BME280;3142;48.206;11.550;2023-09-19T07:08:09;95684.44;;;20.51;62.37
6218;BME280;3142;48.206;11.550;2023-09-19T07:10:40;95688.91;;;20.40;63.07
6218;BME280;3142;48.206;11.550;2023-09-19T07:13:07;95691.31;;;20.41;63.03
6218;BME280;3142;48.206;11.550;2023-09-19T07:15:36;95698.25;;;20.48;63.23
6218;BME280;3142;48.206;11.550;2023-09-19T07:18:05;95695.63;;;20.58;62.84
6218;BME280;3142;48.206;11.550;2023-09-19T07:20:32;95696.19;;;20.60;63.10
6218;BME280;3142;48.206;11.550;2023-09-19T07:22:59;95700.66;;;20.49;63.33
6218;BME280;3142;48.206;11.550;2023-09-19T07:25:26;95702.97;;;20.40;63.25
6218;BME280;3142;48.206;11.550;2023-09-19T07:27:56;95703.25;;;20.39;63.47
6218;BME280;3142;48.206;11.550;2023-09-19T07:30:25;95704.56;;;20.31;63.32
6218;BME280;3142;48.206;11.550;2023-09-19T07:32:51;95700.31;;;20.35;63.12
6218;BME280;3142;48.206;11.550;2023-09-19T07:35:18;95700.47;;;20.86;62.17
6218;BME280;3142;48.206;11.550;2023-09-19T07:37:46;95697.56;;;21.03;61.56
6218;BME280;3142;48.206;11.550;2023-09-19T07:40:14;95700.19;;;21.23;60.83
6218;BME280;3142;48.206;11.550;2023-09-19T07:42:40;95701.53;;;21.06;60.98
6218;BME280;3142;48.206;11.550;2023-09-19T07:45:11;95695.16;;;20.96;61.50
6218;BME280;3142;48.206;11.550;2023-09-19T07:47:39;95704.47;;;20.94;62.10
6218;BME280;3142;48.206;11.550;2023-09-19T07:50:06;95696.47;;;20.94;61.62
6218;BME280;3142;48.206;11.550;2023-09-19T07:52:32;95705.81;;;21.47;60.78
6218;BME280;3142;48.206;11.550;2023-09-19T07:54:59;95699.63;;;23.01;56.74
6218;BME280;3142;48.206;11.550;2023-09-19T07:57:26;95704.47;;;24.39;53.69
6218;BME280;3142;48.206;11.550;2023-09-19T07:59:54;95709.34;;;23.84;53.62
6218;BME280;3142;48.206;11.550;2023-09-19T08:02:21;95714.09;;;23.29;54.42
6218;BME280;3142;48.206;11.550;2023-09-19T08:04:48;95712.94;;;22.62;56.78
6218;BME280;3142;48.206;11.550;2023-09-19T08:07:15;95718.72;;;22.20;58.21
6218;BME280;3142;48.206;11.550;2023-09-19T08:09:41;95708.66;;;21.92;58.01
6218;BME280;3142;48.206;11.550;2023-09-19T08:12:11;95710.31;;;21.72;58.71
6218;BME280;3142;48.206;11.550;2023-09-19T08:14:38;95721.50;;;21.64;59.22
6218;BME280;3142;48.206;11.550;2023-09-19T08:17:06;95718.31;;;21.62;59.39
6218;BME280;3142;48.206;11.550;2023-09-19T08:19:35;95721.47;;;21.84;59.08
6218;BME280;3142;48.206;11.550;2023-09-19T08:22:01;95723.81;;;22.06;58.53
6218;BME280;3142;48.206;11.550;2023-09-19T08:24:28;95727.25;;;22.17;58.08
6218;BME280;3142;48.206;11.550;2023-09-19T08:26:56;95722.06;;;23.00;56.36
6218;BME280;3142;48.206;11.550;2023-09-19T08:29:23;95721.94;;;24.32;53.25
6218;BME280;3142;48.206;11.550;2023-09-19T08:31:53;95719.03;;;25.27;51.11
6218;BME280;3142;48.206;11.550;2023-09-19T08:34:21;95732.22;;;26.03;48.93
6218;BME280;3142;48.206;11.550;2023-09-19T08:36:50;95719.13;;;26.56;46.63
6218;BME280;3142;48.206;11.550;2023-09-19T08:39:18;95717.19;;;26.84;45.24
6218;BME280;3142;48.206;11.550;2023-09-19T08:41:44;95721.53;;;27.07;44.87
6218;BME280;3142;48.206;11.550;2023-09-19T08:44:11;95718.19;;;27.47;44.01
6218;BME280;3142;48.206;11.550;2023-09-19T08:46:41;95715.38;;;27.74;43.98
6218;BME280;3142;48.206;11.550;2023-09-19T08:49:12;95715.50;;;27.69;43.40
6218;BME280;3142;48.206;11.550;2023-09-19T08:51:43;95717.31;;;27.60;42.72
6218;BME280;3142;48.206;11.550;2023-09-19T08:54:22;95715.59;;;27.86;42.65
6218;BME280;3142;48.206;11.550;2023-09-19T08:56:53;95708.84;;;27.97;42.34
6218;BME280;3142;48.206;11.550;2023-09-19T08:59:21;95724.38;;;27.11;44.55
6218;BME280;3142;48.206;11.550;2023-09-19T09:01:50;95721.34;;;27.71;43.49
6218;BME280;3142;48.206;11.550;2023-09-19T09:04:19;95731.78;;;27.50;43.95
6218;BME280;3142;48.206;11.550;2023-09-19T09:06:46;95732.53;;;26.28;45.02
6218;BME280;3142;48.206;11.550;2023-09-19T09:09:15;95729.84;;;25.22;47.12
6218;BME280;3142;48.206;11.550;2023-09-19T09:11:42;95727.50;;;24.78;48.11
6218;BME280;3142;48.206;11.550;2023-09-19T09:14:08;95750.44;;;25.22;46.91
6218;BME280;3142;48.206;11.550;2023-09-19T09:16:35;95740.47;;;25.60;46.34
6218;BME280;3142;48.206;11.550;2023-09-19T09:19:01;95733.13;;;25.52;46.34
6218;BME280;3142;48.206;11.550;2023-09-19T09:21:28;95736.56;;;25.38;46.60
6218;BME280;3142;48.206;11.550;2023-09-19T09:23:54;95736.41;;;24.92;46.69
6218;BME280;3142;48.206;11.550;2023-09-19T09:26:43;95748.19;;;24.91;46.93
6218;BME280;3142;48.206;11.550;2023-09-19T09:29:09;95734.63;;;25.58;45.93
6218;BME280;3142;48.206;11.550;2023-09-19T09:31:36;95735.03;;;26.66;43.69
6218;BME280;3142;48.206;11.550;2023-09-19T09:34:03;95732.88;;;27.49;42.07
6218;BME280;3142;48.206;11.550;2023-09-19T09:36:37;95736.03;;;27.96;41.01
6218;BME280;3142;48.206;11.550;2023-09-19T09:39:04;95734.16;;;28.36;39.98
6218;BME280;3142;48.206;11.550;2023-09-19T09:41:44;95715.56;;;28.66;39.16
6218;BME280;3142;48.206;11.550;2023-09-19T09:44:14;95732.00;;;28.55;39.71
6218;BME280;3142;48.206;11.550;2023-09-19T09:46:43;95726.81;;;27.88;41.13
6218;BME280;3142;48.206;11.550;2023-09-19T09:49:47;95731.66;;;26.74;41.50
6218;BME280;3142;48.206;11.550;2023-09-19T09:52:19;95736.50;;;26.04;42.81
6218;BME280;3142;48.206;11.550;2023-09-19T09:54:58;95741.63;;;25.40;43.94
6218;BME280;3142;48.206;11.550;2023-09-19T09:57:27;95737.88;;;25.03;44.77
6218;BME280;3142;48.206;11.550;2023-09-19T09:59:56;95738.44;;;25.71;43.96
6218;BME280;3142;48.206;11.550;2023-09-19T10:02:26;95737.44;;;26.54;42.95
6218;BME280;3142;48.206;11.550;2023-09-19T10:04:55;95738.72;;;27.42;41.51
6218;BME280;3142;48.206;11.550;2023-09-19T10:07:35;95739.50;;;27.43;41.54
6218;BME280;3142;48.206;11.550;2023-09-19T10:10:07;95737.63;;;27.97;39.97
6218;BME280;3142;48.206;11.550;2023-09-19T10:12:46;95738.34;;;28.20;40.43
6218;BME280;3142;48.206;11.550;2023-09-19T10:15:15;95735.59;;;28.02;40.25
6218;BME280;3142;48.206;11.550;2023-09-19T10:17:43;95732.47;;;26.97;41.84
6218;BME280;3142;48.206;11.550;2023-09-19T10:20:12;95738.19;;;26.13;43.05
6218;BME280;3142;48.206;11.550;2023-09-19T10:22:48;95739.63;;;25.46;44.14
6218;BME280;3142;48.206;11.550;2023-09-19T10:25:25;95738.78;;;25.83;43.98
6218;BME280;3142;48.206;11.550;2023-09-19T10:27:56;95740.59;;;26.70;42.74
6218;BME280;3142;48.206;11.550;2023-09-19T10:30:25;95735.44;;;27.09;42.59
6218;BME280;3142;48.206;11.550;2023-09-19T10:33:00;95737.59;;;27.21;41.25
6218;BME280;3142;48.206;11.550;2023-09-19T10:35:27;95735.97;;;26.84;41.40
6218;BME280;3142;48.206;11.550;2023-09-19T10:37:54;95737.97;;;26.92;41.81
6218;BME280;3142;48.206;11.550;2023-09-19T10:40:24;95742.34;;;27.02;41.75
6218;BME280;3142;48.206;11.550;2023-09-19T10:42:52;95747.97;;;27.14;42.07
6218;BME280;3142;48.206;11.550;2023-09-19T10:45:21;95735.03;;;27.38;41.82
6218;BME280;3142;48.206;11.550;2023-09-19T10:47:51;95744.16;;;28.04;40.65
6218;BME280;3142;48.206;11.550;2023-09-19T10:50:19;95752.28;;;28.61;39.49
6218;BME280;3142;48.206;11.550;2023-09-19T10:52:47;95749.34;;;28.89;36.92
6218;BME280;3142;48.206;11.550;2023-09-19T10:55:16;95745.97;;;28.75;36.38
6218;BME280;3142;48.206;11.550;2023-09-19T10:57:44;95749.91;;;28.51;37.58
6218;BME280;3142;48.206;11.550;2023-09-19T11:00:12;95738.84;;;27.91;38.24
6218;BME280;3142;48.206;11.550;2023-09-19T11:06:06;95740.44;;;26.39;40.38
6218;BME280;3142;48.206;11.550;2023-09-19T11:08:57;95749.31;;;25.79;42.18
6218;BME280;3142;48.206;11.550;2023-09-19T11:11:45;95737.38;;;25.85;42.36
6218;BME280;3142;48.206;11.550;2023-09-19T11:14:37;95731.28;;;26.40;41.46
6218;BME280;3142;48.206;11.550;2023-09-19T11:20:23;95746.66;;;26.07;41.42
6218;BME280;3142;48.206;11.550;2023-09-19T11:23:20;95743.75;;;26.03;41.52
6218;BME280;3142;48.206;11.550;2023-09-19T11:25:52;95733.63;;;25.54;42.46
6218;BME280;3142;48.206;11.550;2023-09-19T11:28:32;95748.66;;;25.17;43.23
6218;BME280;3142;48.206;11.550;2023-09-19T11:36:57;95726.69;;;26.26;42.13
6218;BME280;3142;48.206;11.550;2023-09-19T11:39:26;95727.63;;;27.22;40.70
6218;BME280;3142;48.206;11.550;2023-09-19T11:41:54;95731.16;;;27.53;39.92
6218;BME280;3142;48.206;11.550;2023-09-19T11:44:32;95733.22;;;27.70;40.42
6218;BME280;3142;48.206;11.550;2023-09-19T11:47:04;95728.88;;;27.83;40.51
6218;BME280;3142;48.206;11.550;2023-09-19T11:49:32;95725.97;;;27.79;40.22
6218;BME280;3142;48.206;11.550;2023-09-19T11:52:00;95728.75;;;27.43;40.62
6218;BME280;3142;48.206;11.550;2023-09-19T11:54:32;95726.44;;;27.28;40.56
6218;BME280;3142;48.206;11.550;2023-09-19T11:56:59;95731.75;;;26.55;41.71
6218;BME280;3142;48.206;11.550;2023-09-19T11:59:28;95729.38;;;26.54;41.22
6218;BME280;3142;48.206;11.550;2023-09-19T12:01:56;95733.94;;;26.26;40.80
6218;BME280;3142;48.206;11.550;2023-09-19T12:04:37;95730.94;;;25.86;41.38
6218;BME280;3142;48.206;11.550;2023-09-19T12:07:05;95732.44;;;25.60;41.87
6218;BME280;3142;48.206;11.550;2023-09-19T12:09:38;95724.81;;;25.67;41.73
6218;BME280;3142;48.206;11.550;2023-09-19T12:12:06;95732.41;;;25.79;42.31
6218;BME280;3142;48.206;11.550;2023-09-19T12:14:32;95726.56;;;25.90;41.98
6218;BME280;3142;48.206;11.550;2023-09-19T12:17:00;95729.22;;;25.90;42.50
6218;BME280;3142;48.206;11.550;2023-09-19T12:19:28;95725.47;;;25.78;43.62
6218;BME280;3142;48.206;11.550;2023-09-19T12:21:56;95727.47;;;25.53;43.34
6218;BME280;3142;48.206;11.550;2023-09-19T12:24:25;95724.59;;;25.31;43.74
6218;BME280;3142;48.206;11.550;2023-09-19T12:27:01;95726.34;;;25.22;44.32
6218;BME280;3142;48.206;11.550;2023-09-19T12:29:30;95727.91;;;25.09;45.00
6218;BME280;3142;48.206;11.550;2023-09-19T12:31:58;95721.81;;;25.03;45.54
6218;BME280;3142;48.206;11.550;2023-09-19T12:34:26;95729.25;;;25.06;45.87
6218;BME280;3142;48.206;11.550;2023-09-19T12:37:07;95724.44;;;25.08;45.75
6218;BME280;3142;48.206;11.550;2023-09-19T12:39:38;95727.50;;;24.97;45.94
6218;BME280;3142;48.206;11.550;2023-09-19T12:42:08;95721.81;;;24.85;46.63
6218;BME280;3142;48.206;11.550;2023-09-19T12:44:36;95731.94;;;24.69;46.89
6218;BME280;3142;48.206;11.550;2023-09-19T12:47:11;95727.72;;;24.63;47.24
6218;BME280;3142;48.206;11.550;2023-09-19T12:50:06;95730.25;;;24.54;47.50
6218;BME280;3142;48.206;11.550;2023-09-19T12:52:36;95731.75;;;24.41;47.52
6218;BME280;3142;48.206;11.550;2023-09-19T12:55:04;95724.13;;;24.24;48.21
6218;BME280;3142;48.206;11.550;2023-09-19T12:57:33;95734.06;;;24.00;48.37
6218;BME280;3142;48.206;11.550;2023-09-19T13:00:00;95734.75;;;23.82;48.77
6218;BME280;3142;48.206;11.550;2023-09-19T13:02:26;95739.56;;;23.85;48.93
6218;BME280;3142;48.206;11.550;2023-09-19T13:04:53;95725.38;;;23.84;49.09
6218;BME280;3142;48.206;11.550;2023-09-19T13:07:40;95723.34;;;24.24;49.04
6218;BME280;3142;48.206;11.550;2023-09-19T13:10:09;95723.44;;;24.62;48.76
6218;BME280;3142;48.206;11.550;2023-09-19T13:12:38;95712.22;;;24.78;47.75
6218;BME280;3142;48.206;11.550;2023-09-19T13:15:08;95712.97;;;24.84;47.67
6218;BME280;3142;48.206;11.550;2023-09-19T13:17:45;95716.06;;;24.91;47.63
6218;BME280;3142;48.206;11.550;2023-09-19T13:20:21;95703.88;;;25.04;47.81
6218;BME280;3142;48.206;11.550;2023-09-19T13:22:53;95707.53;;;25.27;47.59
6218;BME280;3142;48.206;11.550;2023-09-19T13:25:23;95702.41;;;25.44;46.98
6218;BME280;3142;48.206;11.550;2023-09-19T13:27:54;95699.25;;;25.42;46.50
6218;BME280;3142;48.206;11.550;2023-09-19T13:30:22;95698.75;;;25.40;46.74
6218;BME280;3142;48.206;11.550;2023-09-19T13:32:50;95692.50;;;25.45;46.31
6218;BME280;3142;48.206;11.550;2023-09-19T13:35:18;95699.06;;;25.52;46.75